sensor_id;sensor_type;location;lat;lon;timestamp;temperature;humidity
28247;DHT22;73163;53.178;22.058;2023-11-22T00:01:25;-3.80;92.10
28247;DHT22;73163;53.178;22.058;2023-11-22T00:03:53;-3.80;92.10
28247;DHT22;73163;53.178;22.058;2023-11-22T00:06:21;-3.90;92.10
28247;DHT22;73163;53.178;22.058;2023-11-22T00:08:51;-3.90;92.20
28247;DHT22;73163;53.178;22.058;2023-11-22T00:11:19;-3.90;92.40
28247;DHT22;73163;53.178;22.058;2023-11-22T00:13:47;-3.90;92.40
28247;DHT22;73163;53.178;22.058;2023-11-22T00:16:16;-3.90;92.40
28247;DHT22;73163;53.178;22.058;2023-11-22T00:18:44;-3.90;92.50
28247;DHT22;73163;53.178;22.058;2023-11-22T00:21:12;-3.90;92.50
28247;DHT22;73163;53.178;22.058;2023-11-22T00:23:40;-4.00;92.50
28247;DHT22;73163;53.178;22.058;2023-11-22T00:26:07;-4.10;92.60
28247;DHT22;73163;53.178;22.058;2023-11-22T00:28:36;-4.00;92.80
28247;DHT22;73163;53.178;22.058;2023-11-22T00:31:04;-4.00;92.80
28247;DHT22;73163;53.178;22.058;2023-11-22T00:33:32;-4.10;92.70
28247;DHT22;73163;53.178;22.058;2023-11-22T00:36:02;-4.10;92.70
28247;DHT22;73163;53.178;22.058;2023-11-22T00:38:32;-4.10;92.70
28247;DHT22;73163;53.178;22.058;2023-11-22T00:41:03;-4.10;92.70
28247;DHT22;73163;53.178;22.058;2023-11-22T00:43:31;-4.20;92.70
28247;DHT22;73163;53.178;22.058;2023-11-22T00:45:59;-4.20;92.80
28247;DHT22;73163;53.178;22.058;2023-11-22T00:48:29;-4.20;92.90
28247;DHT22;73163;53.178;22.058;2023-11-22T00:50:56;-4.20;93.00
28247;DHT22;73163;53.178;22.058;2023-11-22T00:53:25;-4.20;93.00
28247;DHT22;73163;53.178;22.058;2023-11-22T00:55:52;-4.20;93.00
28247;DHT22;73163;53.178;22.058;2023-11-22T00:58:20;-4.20;93.30
28247;DHT22;73163;53.178;22.058;2023-11-22T01:00:48;-4.20;93.10
28247;DHT22;73163;53.178;22.058;2023-11-22T01:03:16;-4.30;93.10
28247;DHT22;73163;53.178;22.058;2023-11-22T01:05:44;-4.30;93.10
28247;DHT22;73163;53.178;22.058;2023-11-22T01:08:14;-4.20;93.20
28247;DHT22;73163;53.178;22.058;2023-11-22T01:10:41;-4.30;93.20
28247;DHT22;73163;53.178;22.058;2023-11-22T01:13:09;-4.30;93.20
28247;DHT22;73163;53.178;22.058;2023-11-22T01:15:37;-4.30;93.40
28247;DHT22;73163;53.178;22.058;2023-11-22T01:18:05;-4.30;93.40
28247;DHT22;73163;53.178;22.058;2023-11-22T01:20:33;-4.30;93.40
28247;DHT22;73163;53.178;22.058;2023-11-22T01:23:01;-4.30;93.50
28247;DHT22;73163;53.178;22.058;2023-11-22T01:25:29;-4.30;93.60
28247;DHT22;73163;53.178;22.058;2023-11-22T01:27:57;-4.40;93.70
28247;DHT22;73163;53.178;22.058;2023-11-22T01:30:24;-4.30;93.90
28247;DHT22;73163;53.178;22.058;2023-11-22T01:32:52;-4.40;93.90
28247;DHT22;73163;53.178;22.058;2023-11-22T01:35:20;-4.40;94.10
28247;DHT22;73163;53.178;22.058;2023-11-22T01:37:48;-4.40;94.30
28247;DHT22;73163;53.178;22.058;2023-11-22T01:40:16;-4.40;94.40
28247;DHT22;73163;53.178;22.058;2023-11-22T01:42:49;-4.50;94.50
28247;DHT22;73163;53.178;22.058;2023-11-22T01:45:16;-4.40;94.60
28247;DHT22;73163;53.178;22.058;2023-11-22T01:47:46;-4.50;94.60
28247;DHT22;73163;53.178;22.058;2023-11-22T01:50:35;-4.50;94.90
28247;DHT22;73163;53.178;22.058;2023-11-22T01:53:03;-4.50;95.00
28247;DHT22;73163;53.178;22.058;2023-11-22T01:55:30;-4.50;95.30
28247;DHT22;73163;53.178;22.058;2023-11-22T01:57:59;-4.50;95.30
28247;DHT22;73163;53.178;22.058;2023-11-22T02:00:35;-4.50;95.20
28247;DHT22;73163;53.178;22.058;2023-11-22T02:03:04;-4.60;95.20
28247;DHT22;73163;53.178;22.058;2023-11-22T02:05:31;-4.60;95.30
28247;DHT22;73163;53.178;22.058;2023-11-22T02:08:01;-4.60;95.30
28247;DHT22;73163;53.178;22.058;2023-11-22T02:10:29;-4.60;95.20
28247;DHT22;73163;53.178;22.058;2023-11-22T02:12:58;-4.60;95.20
28247;DHT22;73163;53.178;22.058;2023-11-22T02:15:26;-4.70;95.30
28247;DHT22;73163;53.178;22.058;2023-11-22T02:17:55;-4.70;95.50
28247;DHT22;73163;53.178;22.058;2023-11-22T02:20:23;-4.70;95.60
28247;DHT22;73163;53.178;22.058;2023-11-22T02:22:51;-4.80;95.70
28247;DHT22;73163;53.178;22.058;2023-11-22T02:25:20;-4.80;95.70
28247;DHT22;73163;53.178;22.058;2023-11-22T02:27:48;-4.80;96.00
28247;DHT22;73163;53.178;22.058;2023-11-22T02:30:16;-4.80;96.10
28247;DHT22;73163;53.178;22.058;2023-11-22T02:32:44;-4.80;96.10
28247;DHT22;73163;53.178;22.058;2023-11-22T02:35:13;-4.80;96.20
28247;DHT22;73163;53.178;22.058;2023-11-22T02:37:41;-4.80;96.30
28247;DHT22;73163;53.178;22.058;2023-11-22T02:40:19;-4.90;96.50
28247;DHT22;73163;53.178;22.058;2023-11-22T02:42:49;-4.90;96.60
28247;DHT22;73163;53.178;22.058;2023-11-22T02:45:17;-5.00;96.80
28247;DHT22;73163;53.178;22.058;2023-11-22T02:47:46;-5.00;96.90
28247;DHT22;73163;53.178;22.058;2023-11-22T02:50:14;-5.00;97.00
28247;DHT22;73163;53.178;22.058;2023-11-22T02:52:43;-5.00;97.10
28247;DHT22;73163;53.178;22.058;2023-11-22T02:55:10;-5.00;97.20
28247;DHT22;73163;53.178;22.058;2023-11-22T02:57:39;-5.00;97.30
28247;DHT22;73163;53.178;22.058;2023-11-22T03:00:10;-5.00;97.20
28247;DHT22;73163;53.178;22.058;2023-11-22T03:02:41;-5.00;97.10
28247;DHT22;73163;53.178;22.058;2023-11-22T03:05:09;-5.00;97.00
28247;DHT22;73163;53.178;22.058;2023-11-22T03:07:38;-5.00;97.00
28247;DHT22;73163;53.178;22.058;2023-11-22T03:10:06;-5.00;97.00
28247;DHT22;73163;53.178;22.058;2023-11-22T03:12:36;-5.00;97.00
28247;DHT22;73163;53.178;22.058;2023-11-22T03:15:05;-5.10;97.00
28247;DHT22;73163;53.178;22.058;2023-11-22T03:17:33;-5.10;97.30
28247;DHT22;73163;53.178;22.058;2023-11-22T03:20:01;-5.10;97.40
28247;DHT22;73163;53.178;22.058;2023-11-22T03:22:30;-5.10;97.30
28247;DHT22;73163;53.178;22.058;2023-11-22T03:24:59;-5.20;97.50
28247;DHT22;73163;53.178;22.058;2023-11-22T03:27:28;-5.20;97.70
28247;DHT22;73163;53.178;22.058;2023-11-22T03:29:55;-5.30;97.80
28247;DHT22;73163;53.178;22.058;2023-11-22T03:32:23;-5.30;97.90
28247;DHT22;73163;53.178;22.058;2023-11-22T03:34:51;-5.30;98.10
28247;DHT22;73163;53.178;22.058;2023-11-22T03:37:20;-5.30;98.30
28247;DHT22;73163;53.178;22.058;2023-11-22T03:39:48;-5.40;98.40
28247;DHT22;73163;53.178;22.058;2023-11-22T03:42:16;-5.30;98.60
28247;DHT22;73163;53.178;22.058;2023-11-22T03:44:45;-5.30;98.60
28247;DHT22;73163;53.178;22.058;2023-11-22T03:47:15;-5.30;98.70
28247;DHT22;73163;53.178;22.058;2023-11-22T03:49:43;-5.30;98.70
28247;DHT22;73163;53.178;22.058;2023-11-22T03:52:11;-5.30;98.70
28247;DHT22;73163;53.178;22.058;2023-11-22T03:54:39;-5.20;98.60
28247;DHT22;73163;53.178;22.058;2023-11-22T03:57:07;-5.30;98.60
28247;DHT22;73163;53.178;22.058;2023-11-22T03:59:35;-5.30;98.60
28247;DHT22;73163;53.178;22.058;2023-11-22T04:02:03;-5.30;98.70
28247;DHT22;73163;53.178;22.058;2023-11-22T04:04:31;-5.30;98.80
28247;DHT22;73163;53.178;22.058;2023-11-22T04:06:59;-5.30;99.00
28247;DHT22;73163;53.178;22.058;2023-11-22T04:09:26;-5.30;98.90
28247;DHT22;73163;53.178;22.058;2023-11-22T04:11:54;-5.30;99.00
28247;DHT22;73163;53.178;22.058;2023-11-22T04:14:22;-5.40;99.00
28247;DHT22;73163;53.178;22.058;2023-11-22T04:16:50;-5.30;99.20
28247;DHT22;73163;53.178;22.058;2023-11-22T04:19:18;-5.50;99.30
28247;DHT22;73163;53.178;22.058;2023-11-22T04:21:46;-5.50;99.50
28247;DHT22;73163;53.178;22.058;2023-11-22T04:24:13;-5.40;99.50
28247;DHT22;73163;53.178;22.058;2023-11-22T04:26:41;-5.50;99.60
28247;DHT22;73163;53.178;22.058;2023-11-22T04:29:09;-5.50;99.70
28247;DHT22;73163;53.178;22.058;2023-11-22T04:31:37;-5.50;99.90
28247;DHT22;73163;53.178;22.058;2023-11-22T04:34:05;-5.60;99.80
28247;DHT22;73163;53.178;22.058;2023-11-22T04:36:33;-5.60;99.90
28247;DHT22;73163;53.178;22.058;2023-11-22T04:39:01;-5.60;99.90
28247;DHT22;73163;53.178;22.058;2023-11-22T04:41:29;-5.50;99.90
28247;DHT22;73163;53.178;22.058;2023-11-22T04:43:57;-5.50;99.90
28247;DHT22;73163;53.178;22.058;2023-11-22T04:46:25;-5.50;99.90
28247;DHT22;73163;53.178;22.058;2023-11-22T04:48:52;-5.50;99.90
28247;DHT22;73163;53.178;22.058;2023-11-22T04:51:20;-5.50;99.90
28247;DHT22;73163;53.178;22.058;2023-11-22T04:53:48;-5.50;99.90
28247;DHT22;73163;53.178;22.058;2023-11-22T04:56:16;-5.40;99.90
28247;DHT22;73163;53.178;22.058;2023-11-22T04:58:44;-5.40;99.90
28247;DHT22;73163;53.178;22.058;2023-11-22T05:01:12;-5.30;99.90
28247;DHT22;73163;53.178;22.058;2023-11-22T05:03:39;-5.30;99.90
28247;DHT22;73163;53.178;22.058;2023-11-22T05:06:08;-5.30;99.90
28247;DHT22;73163;53.178;22.058;2023-11-22T05:08:35;-5.20;99.90
28247;DHT22;73163;53.178;22.058;2023-11-22T05:11:03;-5.10;99.90
28247;DHT22;73163;53.178;22.058;2023-11-22T05:13:32;-5.10;99.90
28247;DHT22;73163;53.178;22.058;2023-11-22T05:15:59;-5.00;99.90
28247;DHT22;73163;53.178;22.058;2023-11-22T05:18:28;-5.00;99.90
28247;DHT22;73163;53.178;22.058;2023-11-22T05:20:56;-4.90;99.90
28247;DHT22;73163;53.178;22.058;2023-11-22T05:23:24;-4.90;99.90
28247;DHT22;73163;53.178;22.058;2023-11-22T05:25:51;-4.80;99.90
28247;DHT22;73163;53.178;22.058;2023-11-22T05:28:19;-4.80;99.90
28247;DHT22;73163;53.178;22.058;2023-11-22T05:30:47;-4.70;99.90
28247;DHT22;73163;53.178;22.058;2023-11-22T05:33:15;-4.70;99.90
28247;DHT22;73163;53.178;22.058;2023-11-22T05:35:43;-4.60;99.90
28247;DHT22;73163;53.178;22.058;2023-11-22T05:38:11;-4.60;99.90
28247;DHT22;73163;53.178;22.058;2023-11-22T05:40:39;-4.60;99.90
28247;DHT22;73163;53.178;22.058;2023-11-22T05:43:09;-4.60;99.90
28247;DHT22;73163;53.178;22.058;2023-11-22T05:45:37;-4.60;99.90
28247;DHT22;73163;53.178;22.058;2023-11-22T05:48:05;-4.50;99.90
28247;DHT22;73163;53.178;22.058;2023-11-22T05:50:33;-4.50;99.90
28247;DHT22;73163;53.178;22.058;2023-11-22T05:53:00;-4.40;99.90
28247;DHT22;73163;53.178;22.058;2023-11-22T05:55:28;-4.40;99.90
28247;DHT22;73163;53.178;22.058;2023-11-22T05:57:56;-4.30;99.90
28247;DHT22;73163;53.178;22.058;2023-11-22T06:00:25;-4.20;99.90
28247;DHT22;73163;53.178;22.058;2023-11-22T06:02:53;-4.10;99.90
28247;DHT22;73163;53.178;22.058;2023-11-22T06:05:24;-4.10;99.90
28247;DHT22;73163;53.178;22.058;2023-11-22T06:07:52;-4.00;99.90
28247;DHT22;73163;53.178;22.058;2023-11-22T06:10:20;-4.00;99.90
28247;DHT22;73163;53.178;22.058;2023-11-22T06:12:47;-4.00;99.80
28247;DHT22;73163;53.178;22.058;2023-11-22T06:15:16;-4.00;99.90
28247;DHT22;73163;53.178;22.058;2023-11-22T06:17:43;-4.00;99.80
28247;DHT22;73163;53.178;22.058;2023-11-22T06:20:12;-4.00;99.80
28247;DHT22;73163;53.178;22.058;2023-11-22T06:22:39;-4.00;99.90
28247;DHT22;73163;53.178;22.058;2023-11-22T06:25:12;-4.00;99.90
28247;DHT22;73163;53.178;22.058;2023-11-22T06:27:40;-4.00;99.90
28247;DHT22;73163;53.178;22.058;2023-11-22T06:30:08;-4.00;99.90
28247;DHT22;73163;53.178;22.058;2023-11-22T06:32:56;-4.00;99.90
28247;DHT22;73163;53.178;22.058;2023-11-22T06:35:24;-3.90;99.90
28247;DHT22;73163;53.178;22.058;2023-11-22T06:37:52;-3.90;99.90
28247;DHT22;73163;53.178;22.058;2023-11-22T06:40:20;-3.90;99.90
28247;DHT22;73163;53.178;22.058;2023-11-22T06:42:48;-3.80;99.90
28247;DHT22;73163;53.178;22.058;2023-11-22T06:45:16;-3.70;99.90
28247;DHT22;73163;53.178;22.058;2023-11-22T06:47:44;-3.70;99.90
28247;DHT22;73163;53.178;22.058;2023-11-22T06:50:12;-3.70;99.90
28247;DHT22;73163;53.178;22.058;2023-11-22T06:52:40;-3.70;99.90
28247;DHT22;73163;53.178;22.058;2023-11-22T06:55:09;-3.60;99.90
28247;DHT22;73163;53.178;22.058;2023-11-22T06:57:37;-3.60;99.90
28247;DHT22;73163;53.178;22.058;2023-11-22T07:00:06;-3.50;99.90
28247;DHT22;73163;53.178;22.058;2023-11-22T07:02:36;-3.50;99.90
28247;DHT22;73163;53.178;22.058;2023-11-22T07:05:05;-3.50;99.90
28247;DHT22;73163;53.178;22.058;2023-11-22T07:07:39;-3.50;99.90
28247;DHT22;73163;53.178;22.058;2023-11-22T07:10:08;-3.50;99.90
28247;DHT22;73163;53.178;22.058;2023-11-22T07:12:37;-3.50;99.90
28247;DHT22;73163;53.178;22.058;2023-11-22T07:15:07;-3.40;99.90
28247;DHT22;73163;53.178;22.058;2023-11-22T07:17:37;-3.40;99.90
28247;DHT22;73163;53.178;22.058;2023-11-22T07:20:07;-3.40;99.90
28247;DHT22;73163;53.178;22.058;2023-11-22T07:22:43;-3.30;99.90
28247;DHT22;73163;53.178;22.058;2023-11-22T07:25:11;-3.30;99.90
28247;DHT22;73163;53.178;22.058;2023-11-22T07:27:46;-3.30;99.90
28247;DHT22;73163;53.178;22.058;2023-11-22T07:30:15;-3.30;99.90
28247;DHT22;73163;53.178;22.058;2023-11-22T07:32:43;-3.30;99.90
28247;DHT22;73163;53.178;22.058;2023-11-22T07:35:12;-3.20;99.90
28247;DHT22;73163;53.178;22.058;2023-11-22T07:37:39;-3.10;99.90
28247;DHT22;73163;53.178;22.058;2023-11-22T07:40:14;-3.10;99.90
28247;DHT22;73163;53.178;22.058;2023-11-22T07:42:44;-3.10;99.90
28247;DHT22;73163;53.178;22.058;2023-11-22T07:45:12;-3.10;99.90
28247;DHT22;73163;53.178;22.058;2023-11-22T07:47:41;-2.90;99.90
28247;DHT22;73163;53.178;22.058;2023-11-22T07:50:11;-2.90;99.90
28247;DHT22;73163;53.178;22.058;2023-11-22T07:52:39;-2.80;99.90
28247;DHT22;73163;53.178;22.058;2023-11-22T07:55:09;-2.70;99.90
28247;DHT22;73163;53.178;22.058;2023-11-22T07:57:38;-2.60;99.90
28247;DHT22;73163;53.178;22.058;2023-11-22T08:00:09;-2.50;99.90
28247;DHT22;73163;53.178;22.058;2023-11-22T08:02:58;-2.50;99.90
28247;DHT22;73163;53.178;22.058;2023-11-22T08:05:26;-2.50;99.90
28247;DHT22;73163;53.178;22.058;2023-11-22T08:07:55;-2.40;99.80
28247;DHT22;73163;53.178;22.058;2023-11-22T08:10:25;-2.40;99.90
28247;DHT22;73163;53.178;22.058;2023-11-22T08:12:52;-2.40;99.90
28247;DHT22;73163;53.178;22.058;2023-11-22T08:15:21;-2.30;99.90
28247;DHT22;73163;53.178;22.058;2023-11-22T08:17:51;-2.30;99.80
28247;DHT22;73163;53.178;22.058;2023-11-22T08:20:19;-2.20;99.70
28247;DHT22;73163;53.178;22.058;2023-11-22T08:22:50;-2.20;99.80
28247;DHT22;73163;53.178;22.058;2023-11-22T08:25:18;-2.20;99.80
28247;DHT22;73163;53.178;22.058;2023-11-22T08:27:47;-2.10;99.80
28247;DHT22;73163;53.178;22.058;2023-11-22T08:30:15;-2.10;99.60
28247;DHT22;73163;53.178;22.058;2023-11-22T08:32:46;-2.00;99.90
28247;DHT22;73163;53.178;22.058;2023-11-22T08:35:19;-1.90;99.60
28247;DHT22;73163;53.178;22.058;2023-11-22T08:37:50;-1.90;99.30
28247;DHT22;73163;53.178;22.058;2023-11-22T08:40:19;-1.80;99.30
28247;DHT22;73163;53.178;22.058;2023-11-22T08:42:47;-1.80;99.30
28247;DHT22;73163;53.178;22.058;2023-11-22T08:45:15;-1.80;99.20
28247;DHT22;73163;53.178;22.058;2023-11-22T08:47:43;-1.70;99.40
28247;DHT22;73163;53.178;22.058;2023-11-22T08:50:13;-1.70;98.70
28247;DHT22;73163;53.178;22.058;2023-11-22T08:52:42;-1.60;99.30
28247;DHT22;73163;53.178;22.058;2023-11-22T08:55:12;-1.50;99.10
28247;DHT22;73163;53.178;22.058;2023-11-22T08:57:41;-1.50;98.60
28247;DHT22;73163;53.178;22.058;2023-11-22T09:00:10;-1.50;98.60
28247;DHT22;73163;53.178;22.058;2023-11-22T09:02:39;-1.40;98.90
28247;DHT22;73163;53.178;22.058;2023-11-22T09:05:07;-1.30;98.70
28247;DHT22;73163;53.178;22.058;2023-11-22T09:07:39;-1.40;98.40
28247;DHT22;73163;53.178;22.058;2023-11-22T09:10:08;-1.40;98.30
28247;DHT22;73163;53.178;22.058;2023-11-22T09:12:41;-1.50;97.90
28247;DHT22;73163;53.178;22.058;2023-11-22T09:15:11;-1.60;98.60
28247;DHT22;73163;53.178;22.058;2023-11-22T09:17:42;-1.60;98.60
28247;DHT22;73163;53.178;22.058;2023-11-22T09:20:14;-1.50;98.70
28247;DHT22;73163;53.178;22.058;2023-11-22T09:22:47;-1.50;98.50
28247;DHT22;73163;53.178;22.058;2023-11-22T09:25:21;-1.50;98.30
28247;DHT22;73163;53.178;22.058;2023-11-22T09:27:50;-1.50;98.40
28247;DHT22;73163;53.178;22.058;2023-11-22T09:30:28;-1.50;98.70
28247;DHT22;73163;53.178;22.058;2023-11-22T09:33:04;-1.50;98.50
28247;DHT22;73163;53.178;22.058;2023-11-22T09:35:32;-1.50;98.00
28247;DHT22;73163;53.178;22.058;2023-11-22T09:38:02;-1.60;98.10
28247;DHT22;73163;53.178;22.058;2023-11-22T09:40:30;-1.60;98.50
28247;DHT22;73163;53.178;22.058;2023-11-22T09:43:01;-1.50;98.30
28247;DHT22;73163;53.178;22.058;2023-11-22T09:45:32;-1.50;98.20
28247;DHT22;73163;53.178;22.058;2023-11-22T09:48:00;-1.50;98.10
28247;DHT22;73163;53.178;22.058;2023-11-22T09:50:33;-1.60;98.20
28247;DHT22;73163;53.178;22.058;2023-11-22T09:53:02;-1.60;98.50
28247;DHT22;73163;53.178;22.058;2023-11-22T09:55:33;-1.50;98.50
28247;DHT22;73163;53.178;22.058;2023-11-22T09:58:05;-1.50;98.00
28247;DHT22;73163;53.178;22.058;2023-11-22T10:00:34;-1.50;97.90
28247;DHT22;73163;53.178;22.058;2023-11-22T10:03:01;-1.40;98.00
28247;DHT22;73163;53.178;22.058;2023-11-22T10:05:30;-1.40;97.60
28247;DHT22;73163;53.178;22.058;2023-11-22T10:07:58;-1.40;96.90
28247;DHT22;73163;53.178;22.058;2023-11-22T10:10:29;-1.30;96.60
28247;DHT22;73163;53.178;22.058;2023-11-22T10:12:58;-1.30;96.20
28247;DHT22;73163;53.178;22.058;2023-11-22T10:15:28;-1.20;95.60
28247;DHT22;73163;53.178;22.058;2023-11-22T10:17:57;-1.20;94.90
28247;DHT22;73163;53.178;22.058;2023-11-22T10:20:40;-1.20;95.20
28247;DHT22;73163;53.178;22.058;2023-11-22T10:23:09;-1.20;95.70
28247;DHT22;73163;53.178;22.058;2023-11-22T10:25:48;-1.10;95.50
28247;DHT22;73163;53.178;22.058;2023-11-22T10:28:20;-1.00;95.70
28247;DHT22;73163;53.178;22.058;2023-11-22T10:30:50;-1.00;94.40
28247;DHT22;73163;53.178;22.058;2023-11-22T10:33:19;-1.00;94.70
28247;DHT22;73163;53.178;22.058;2023-11-22T10:35:51;-1.00;95.30
28247;DHT22;73163;53.178;22.058;2023-11-22T10:38:20;-0.80;95.40
28247;DHT22;73163;53.178;22.058;2023-11-22T10:40:54;-0.90;94.90
28247;DHT22;73163;53.178;22.058;2023-11-22T10:43:22;-0.90;94.40
28247;DHT22;73163;53.178;22.058;2023-11-22T10:45:55;-0.90;94.30
28247;DHT22;73163;53.178;22.058;2023-11-22T10:48:23;-0.80;94.20
28247;DHT22;73163;53.178;22.058;2023-11-22T10:50:53;-0.80;94.30
28247;DHT22;73163;53.178;22.058;2023-11-22T10:53:22;-0.80;93.80
28247;DHT22;73163;53.178;22.058;2023-11-22T10:56:02;-0.70;94.20
28247;DHT22;73163;53.178;22.058;2023-11-22T10:58:32;-0.70;92.30
28247;DHT22;73163;53.178;22.058;2023-11-22T11:01:04;-0.80;91.40
28247;DHT22;73163;53.178;22.058;2023-11-22T11:03:37;-0.80;92.40
28247;DHT22;73163;53.178;22.058;2023-11-22T11:06:10;-0.70;92.50
28247;DHT22;73163;53.178;22.058;2023-11-22T11:08:41;-0.70;92.50
28247;DHT22;73163;53.178;22.058;2023-11-22T11:11:12;-0.70;92.20
28247;DHT22;73163;53.178;22.058;2023-11-22T11:13:42;-0.70;91.60
28247;DHT22;73163;53.178;22.058;2023-11-22T11:16:11;-0.60;91.90
28247;DHT22;73163;53.178;22.058;2023-11-22T11:18:39;-0.70;92.60
28247;DHT22;73163;53.178;22.058;2023-11-22T11:21:09;-0.60;93.00
28247;DHT22;73163;53.178;22.058;2023-11-22T11:23:40;-0.50;93.10
28247;DHT22;73163;53.178;22.058;2023-11-22T11:26:18;-0.50;92.80
28247;DHT22;73163;53.178;22.058;2023-11-22T11:28:47;-0.50;92.90
28247;DHT22;73163;53.178;22.058;2023-11-22T11:31:16;-0.40;92.70
28247;DHT22;73163;53.178;22.058;2023-11-22T11:36:29;-0.40;90.50
28247;DHT22;73163;53.178;22.058;2023-11-22T11:39:02;-0.40;91.50
28247;DHT22;73163;53.178;22.058;2023-11-22T11:41:36;-0.40;91.60
28247;DHT22;73163;53.178;22.058;2023-11-22T11:44:08;-0.40;91.80
28247;DHT22;73163;53.178;22.058;2023-11-22T11:46:38;-0.40;91.70
28247;DHT22;73163;53.178;22.058;2023-11-22T11:49:12;-0.40;90.60
28247;DHT22;73163;53.178;22.058;2023-11-22T11:51:41;-0.40;91.30
28247;DHT22;73163;53.178;22.058;2023-11-22T11:54:12;-0.40;90.20
28247;DHT22;73163;53.178;22.058;2023-11-22T11:56:40;-0.40;89.80
28247;DHT22;73163;53.178;22.058;2023-11-22T11:59:08;-0.50;90.20
28247;DHT22;73163;53.178;22.058;2023-11-22T12:01:37;-0.50;91.10
28247;DHT22;73163;53.178;22.058;2023-11-22T12:04:05;-0.50;91.30
28247;DHT22;73163;53.178;22.058;2023-11-22T12:06:33;-0.40;91.30
28247;DHT22;73163;53.178;22.058;2023-11-22T12:09:04;-0.40;91.10
28247;DHT22;73163;53.178;22.058;2023-11-22T12:11:32;-0.40;91.20
28247;DHT22;73163;53.178;22.058;2023-11-22T12:14:02;-0.30;91.50
28247;DHT22;73163;53.178;22.058;2023-11-22T12:16:31;-0.30;91.60
28247;DHT22;73163;53.178;22.058;2023-11-22T12:19:01;-0.30;90.80
28247;DHT22;73163;53.178;22.058;2023-11-22T12:21:30;-0.30;90.40
28247;DHT22;73163;53.178;22.058;2023-11-22T12:23:58;-0.30;90.90
28247;DHT22;73163;53.178;22.058;2023-11-22T12:26:26;-0.30;90.60
28247;DHT22;73163;53.178;22.058;2023-11-22T12:28:54;-0.30;90.70
28247;DHT22;73163;53.178;22.058;2023-11-22T12:31:23;-0.30;91.10
28247;DHT22;73163;53.178;22.058;2023-11-22T12:33:52;-0.30;90.90
28247;DHT22;73163;53.178;22.058;2023-11-22T12:36:20;-0.30;90.90
28247;DHT22;73163;53.178;22.058;2023-11-22T12:38:48;-0.30;90.90
28247;DHT22;73163;53.178;22.058;2023-11-22T12:41:16;-0.30;90.90
28247;DHT22;73163;53.178;22.058;2023-11-22T12:44:07;-0.20;90.70
28247;DHT22;73163;53.178;22.058;2023-11-22T12:46:49;-0.20;89.60
28247;DHT22;73163;53.178;22.058;2023-11-22T12:49:17;-0.20;90.30
28247;DHT22;73163;53.178;22.058;2023-11-22T12:51:55;-0.20;90.50
28247;DHT22;73163;53.178;22.058;2023-11-22T12:54:24;-0.10;90.60
28247;DHT22;73163;53.178;22.058;2023-11-22T12:56:53;-0.10;90.70
28247;DHT22;73163;53.178;22.058;2023-11-22T12:59:26;-0.10;90.60
28247;DHT22;73163;53.178;22.058;2023-11-22T13:01:58;-0.10;90.40
28247;DHT22;73163;53.178;22.058;2023-11-22T13:04:28;-0.10;90.90
28247;DHT22;73163;53.178;22.058;2023-11-22T13:06:57;0.00;89.30
28247;DHT22;73163;53.178;22.058;2023-11-22T13:09:27;0.00;89.90
28247;DHT22;73163;53.178;22.058;2023-11-22T13:11:55;0.00;90.10
28247;DHT22;73163;53.178;22.058;2023-11-22T13:14:22;0.00;90.40
28247;DHT22;73163;53.178;22.058;2023-11-22T13:16:50;0.00;88.90
28247;DHT22;73163;53.178;22.058;2023-11-22T13:19:18;0.00;90.20
28247;DHT22;73163;53.178;22.058;2023-11-22T13:21:46;0.00;90.00
28247;DHT22;73163;53.178;22.058;2023-11-22T13:24:15;0.00;90.50
28247;DHT22;73163;53.178;22.058;2023-11-22T13:26:45;0.10;90.90
28247;DHT22;73163;53.178;22.058;2023-11-22T13:29:13;0.10;90.80
28247;DHT22;73163;53.178;22.058;2023-11-22T13:31:41;0.20;90.70
28247;DHT22;73163;53.178;22.058;2023-11-22T13:34:08;0.20;90.60
28247;DHT22;73163;53.178;22.058;2023-11-22T13:36:38;0.20;90.70
28247;DHT22;73163;53.178;22.058;2023-11-22T13:39:06;0.20;90.60
28247;DHT22;73163;53.178;22.058;2023-11-22T13:41:34;0.30;90.70
28247;DHT22;73163;53.178;22.058;2023-11-22T13:44:02;0.20;90.60
28247;DHT22;73163;53.178;22.058;2023-11-22T13:46:30;0.30;90.90
28247;DHT22;73163;53.178;22.058;2023-11-22T13:48:58;0.30;90.90
28247;DHT22;73163;53.178;22.058;2023-11-22T13:51:27;0.40;91.00
28247;DHT22;73163;53.178;22.058;2023-11-22T13:53:55;0.40;90.90
28247;DHT22;73163;53.178;22.058;2023-11-22T13:56:23;0.30;90.80
28247;DHT22;73163;53.178;22.058;2023-11-22T13:58:51;0.30;90.80
28247;DHT22;73163;53.178;22.058;2023-11-22T14:01:19;0.40;90.70
28247;DHT22;73163;53.178;22.058;2023-11-22T14:03:48;0.20;90.80
28247;DHT22;73163;53.178;22.058;2023-11-22T14:06:17;0.10;90.80
28247;DHT22;73163;53.178;22.058;2023-11-22T14:08:44;0.10;90.80
28247;DHT22;73163;53.178;22.058;2023-11-22T14:11:13;0.00;90.80
28247;DHT22;73163;53.178;22.058;2023-11-22T14:13:41;0.00;90.80
28247;DHT22;73163;53.178;22.058;2023-11-22T14:16:09;-0.10;90.90
28247;DHT22;73163;53.178;22.058;2023-11-22T14:18:38;0.00;91.00
28247;DHT22;73163;53.178;22.058;2023-11-22T14:21:06;-0.10;91.20
28247;DHT22;73163;53.178;22.058;2023-11-22T14:23:34;-0.20;91.40
28247;DHT22;73163;53.178;22.058;2023-11-22T14:26:02;-0.20;91.50
28247;DHT22;73163;53.178;22.058;2023-11-22T14:28:30;-0.30;91.50
28247;DHT22;73163;53.178;22.058;2023-11-22T14:30:58;-0.30;91.70
28247;DHT22;73163;53.178;22.058;2023-11-22T14:33:25;-0.40;91.90
28247;DHT22;73163;53.178;22.058;2023-11-22T14:35:55;-0.40;91.90
28247;DHT22;73163;53.178;22.058;2023-11-22T14:38:23;-0.40;92.10
28247;DHT22;73163;53.178;22.058;2023-11-22T14:40:52;-0.50;92.30
28247;DHT22;73163;53.178;22.058;2023-11-22T14:43:20;-0.60;92.30
28247;DHT22;73163;53.178;22.058;2023-11-22T14:45:48;-0.60;92.50
28247;DHT22;73163;53.178;22.058;2023-11-22T14:48:15;-0.70;92.50
28247;DHT22;73163;53.178;22.058;2023-11-22T14:50:44;-0.80;92.60
28247;DHT22;73163;53.178;22.058;2023-11-22T14:53:12;-0.80;92.90
28247;DHT22;73163;53.178;22.058;2023-11-22T14:55:40;-0.90;93.20
28247;DHT22;73163;53.178;22.058;2023-11-22T14:58:09;-0.90;93.40
28247;DHT22;73163;53.178;22.058;2023-11-22T15:00:38;-1.00;93.50
28247;DHT22;73163;53.178;22.058;2023-11-22T15:03:06;-1.00;93.70
28247;DHT22;73163;53.178;22.058;2023-11-22T15:05:35;-1.10;93.70
28247;DHT22;73163;53.178;22.058;2023-11-22T15:08:04;-1.10;94.00
28247;DHT22;73163;53.178;22.058;2023-11-22T15:10:32;-1.20;94.20
28247;DHT22;73163;53.178;22.058;2023-11-22T15:13:00;-1.20;94.40
28247;DHT22;73163;53.178;22.058;2023-11-22T15:15:30;-1.20;94.50
28247;DHT22;73163;53.178;22.058;2023-11-22T15:17:58;-1.30;94.60
28247;DHT22;73163;53.178;22.058;2023-11-22T15:20:26;-1.30;94.80
28247;DHT22;73163;53.178;22.058;2023-11-22T15:22:53;-1.30;95.00
28247;DHT22;73163;53.178;22.058;2023-11-22T15:25:21;-1.40;95.00
28247;DHT22;73163;53.178;22.058;2023-11-22T15:27:49;-1.40;95.30
28247;DHT22;73163;53.178;22.058;2023-11-22T15:30:17;-1.40;95.50
28247;DHT22;73163;53.178;22.058;2023-11-22T15:32:46;-1.40;95.60